Time;durP1;ratioP1;P1;durP2;ratioP2;P2;SDS_P1;SDS_P2;PMS_P1;PMS_P2;Temp;Humidity;BMP_temperature;BMP_pressure;BME280_temperature;BME280_humidity;BME280_pressure;Samples;Min_cycle;Max_cycle;Signal;HPM_P1;HPM_P2
2022/11/13 00:00:09;;;;;;;1.50;0.90;;;;;;;;;;5095585;28;20044;-87
2022/11/13 00:02:37;;;;;;;1.30;1.20;;;;;;;;;;5094804;28;20094;-87
2022/11/13 00:05:04;;;;;;;0.80;0.75;;;;;;;;;;5097201;28;20040;-87
2022/11/13 00:07:31;;;;;;;1.27;1.25;;;;;;;;;;5095520;28;20055;-88
2022/11/13 00:09:57;;;;;;;5.93;2.10;;;;;;;;;;5095249;28;20044;-88
2022/11/13 00:12:24;;;;;;;1.73;1.63;;;;;;;;;;5095404;28;20056;-87
2022/11/13 00:14:50;;;;;;;2.25;2.15;;;;;;;;;;5095160;28;20040;-87
2022/11/13 00:17:17;;;;;;;1.25;1.20;;;;;;;;;;5095065;28;20048;-87
2022/11/13 00:19:45;;;;;;;1.20;1.20;;;;;;;;;;5094885;28;20070;-88
2022/11/13 00:22:11;;;;;;;1.58;1.48;;;;;;;;;;5094678;28;20059;-90
2022/11/13 00:24:38;;;;;;;1.55;1.45;;;;;;;;;;5095126;28;20052;-89
2022/11/13 00:27:04;;;;;;;0.93;0.93;;;;;;;;;;5095535;28;20055;-89
2022/11/13 00:29:31;;;;;;;2.05;1.95;;;;;;;;;;5094875;28;20062;-89
2022/11/13 00:31:58;;;;;;;1.42;1.33;;;;;;;;;;5094874;28;20520;-89
2022/11/13 00:34:24;;;;;;;3.60;2.47;;;;;;;;;;5095539;28;20051;-90
2022/11/13 00:36:52;;;;;;;2.08;1.95;;;;;;;;;;5095422;28;20048;-89
2022/11/13 00:39:19;;;;;;;1.60;1.50;;;;;;;;;;5094920;28;20048;-89
2022/11/13 00:41:45;;;;;;;2.70;2.08;;;;;;;;;;5089352;28;20056;-89
2022/11/13 00:44:12;;;;;;;1.92;1.83;;;;;;;;;;5074433;28;20049;-89
2022/11/13 00:46:38;;;;;;;0.63;0.63;;;;;;;;;;5073950;28;20052;-86
2022/11/13 00:49:05;;;;;;;1.00;1.00;;;;;;;;;;5073789;28;20040;-87
2022/11/13 00:51:31;;;;;;;1.25;1.15;;;;;;;;;;5073962;28;20114;-87
2022/11/13 00:53:59;;;;;;;2.13;1.55;;;;;;;;;;5074027;28;20074;-87
2022/11/13 00:56:26;;;;;;;2.30;1.75;;;;;;;;;;5073611;28;20045;-87
2022/11/13 00:58:53;;;;;;;1.77;1.67;;;;;;;;;;5074356;28;20048;-87
2022/11/13 01:01:20;;;;;;;2.28;2.17;;;;;;;;;;5077243;28;20413;-87
2022/11/13 01:03:47;;;;;;;1.20;1.05;;;;;;;;;;5094165;28;20395;-87
2022/11/13 01:06:14;;;;;;;1.05;1.05;;;;;;;;;;5094069;28;20494;-86
2022/11/13 01:08:41;;;;;;;1.48;1.40;;;;;;;;;;5094048;28;20055;-86
2022/11/13 01:11:09;;;;;;;2.33;2.22;;;;;;;;;;5094197;28;20048;-86
2022/11/13 01:13:36;;;;;;;1.55;1.48;;;;;;;;;;5076783;28;20442;-86
2022/11/13 01:16:05;;;;;;;1.58;1.48;;;;;;;;;;5073484;28;20048;-87
2022/11/13 01:18:31;;;;;;;0.77;0.77;;;;;;;;;;5073724;28;20060;-86
2022/11/13 01:21:02;;;;;;;0.85;0.85;;;;;;;;;;5073880;28;20059;-88
2022/11/13 01:23:28;;;;;;;1.60;1.50;;;;;;;;;;5073526;28;20051;-88
2022/11/13 01:25:55;;;;;;;1.58;1.48;;;;;;;;;;5073887;28;20412;-88
2022/11/13 01:28:23;;;;;;;2.33;2.22;;;;;;;;;;5073613;28;20520;-88
2022/11/13 01:30:49;;;;;;;1.08;1.08;;;;;;;;;;5073657;28;20045;-88
2022/11/13 01:33:16;;;;;;;1.20;1.10;;;;;;;;;;5073589;28;20452;-88
2022/11/13 01:35:42;;;;;;;0.80;0.80;;;;;;;;;;5073417;28;20048;-89
2022/11/13 01:38:09;;;;;;;2.35;2.25;;;;;;;;;;5073611;28;20045;-89
2022/11/13 01:40:35;;;;;;;1.17;1.10;;;;;;;;;;5073752;28;20459;-88
2022/11/13 01:43:14;;;;;;;1.55;1.48;;;;;;;;;;5073710;28;20048;-89
2022/11/13 01:46:04;;;;;;;1.52;1.42;;;;;;;;;;5079330;28;20397;-88
2022/11/13 01:48:36;;;;;;;3.22;3.03;;;;;;;;;;5077790;28;20048;-87
2022/11/13 01:51:03;;;;;;;1.42;1.40;;;;;;;;;;5093336;28;20059;-87
2022/11/13 01:53:30;;;;;;;0.90;0.90;;;;;;;;;;5093404;28;20040;-88
2022/11/13 01:55:57;;;;;;;1.10;1.10;;;;;;;;;;5094862;28;20044;-88
2022/11/13 01:58:23;;;;;;;2.25;2.10;;;;;;;;;;5092863;28;20044;-87
2022/11/13 02:00:50;;;;;;;1.52;1.42;;;;;;;;;;5093016;28;20055;-87
2022/11/13 02:03:16;;;;;;;1.27;1.25;;;;;;;;;;5093182;28;20044;-88
2022/11/13 02:05:44;;;;;;;2.45;2.35;;;;;;;;;;5092921;28;20512;-86
2022/11/13 02:08:11;;;;;;;0.75;0.75;;;;;;;;;;5092526;28;20043;-88
2022/11/13 02:10:37;;;;;;;5.00;2.25;;;;;;;;;;5093252;28;20047;-89
2022/11/13 02:13:04;;;;;;;1.35;1.25;;;;;;;;;;5093435;28;20093;-89
2022/11/13 02:15:33;;;;;;;1.58;1.48;;;;;;;;;;5093395;28;20505;-90
2022/11/13 02:18:00;;;;;;;4.07;3.42;;;;;;;;;;5093486;28;20398;-89
2022/11/13 02:20:29;;;;;;;1.60;1.50;;;;;;;;;;5093358;28;20051;-89
2022/11/13 02:23:01;;;;;;;1.90;1.80;;;;;;;;;;5092902;28;20425;-87
2022/11/13 02:25:30;;;;;;;1.30;1.27;;;;;;;;;;5092699;28;20101;-87
2022/11/13 02:27:56;;;;;;;1.35;1.27;;;;;;;;;;5092995;28;20054;-87
2022/11/13 02:30:24;;;;;;;1.25;1.08;;;;;;;;;;5092394;28;20505;-87
2022/11/13 02:32:52;;;;;;;1.90;1.80;;;;;;;;;;5092557;28;20497;-87
2022/11/13 02:35:20;;;;;;;1.10;1.10;;;;;;;;;;5092747;28;20048;-87
2022/11/13 02:37:46;;;;;;;0.98;0.98;;;;;;;;;;5092417;28;20105;-86
2022/11/13 02:40:13;;;;;;;0.47;0.47;;;;;;;;;;5091865;28;20413;-86
2022/11/13 02:42:41;;;;;;;0.77;0.77;;;;;;;;;;5092607;28;20047;-87
2022/11/13 02:45:08;;;;;;;2.15;2.05;;;;;;;;;;5092675;28;20436;-86
2022/11/13 02:47:34;;;;;;;0.50;0.50;;;;;;;;;;5092542;28;20120;-87
2022/11/13 02:50:01;;;;;;;1.20;1.20;;;;;;;;;;5095480;28;20052;-87
2022/11/13 02:52:29;;;;;;;1.13;1.10;;;;;;;;;;5092469;28;20047;-87
2022/11/13 02:54:56;;;;;;;0.38;0.38;;;;;;;;;;5092301;28;20044;-86
2022/11/13 02:57:23;;;;;;;1.27;0.85;;;;;;;;;;5092276;28;20036;-86
2022/11/13 02:59:51;;;;;;;0.73;0.73;;;;;;;;;;5092464;28;20405;-86
2022/11/13 03:02:17;;;;;;;1.83;1.73;;;;;;;;;;5092520;28;20059;-86
2022/11/13 03:04:45;;;;;;;1.92;1.83;;;;;;;;;;5092040;28;20051;-86
2022/11/13 03:07:12;;;;;;;1.33;1.23;;;;;;;;;;5092142;28;20489;-87
2022/11/13 03:09:38;;;;;;;3.53;1.88;;;;;;;;;;5097044;28;20101;-89
2022/11/13 03:12:05;;;;;;;0.40;0.40;;;;;;;;;;5096840;28;20047;-89
2022/11/13 03:14:31;;;;;;;1.75;1.65;;;;;;;;;;5084553;28;20110;-91
2022/11/13 03:16:59;;;;;;;1.70;1.60;;;;;;;;;;5076748;28;20147;-90
2022/11/13 03:19:26;;;;;;;2.70;2.55;;;;;;;;;;5075944;28;20052;-88
2022/11/13 03:21:53;;;;;;;2.58;2.47;;;;;;;;;;5076281;28;20048;-88
2022/11/13 03:24:19;;;;;;;0.77;0.77;;;;;;;;;;5093854;28;20455;-87
2022/11/13 03:26:46;;;;;;;0.65;0.65;;;;;;;;;;5095880;28;20097;-89
2022/11/13 03:29:12;;;;;;;1.02;1.02;;;;;;;;;;5096202;28;20055;-89
2022/11/13 03:31:39;;;;;;;1.30;1.20;;;;;;;;;;5096776;28;20052;-90
2022/11/13 03:34:07;;;;;;;1.23;1.15;;;;;;;;;;5096431;28;20052;-89
2022/11/13 03:36:33;;;;;;;1.42;1.33;;;;;;;;;;5095993;28;20052;-87
2022/11/13 03:39:00;;;;;;;1.17;1.13;;;;;;;;;;5095681;28;20056;-87
2022/11/13 03:41:26;;;;;;;2.20;1.95;;;;;;;;;;5095735;28;20052;-87
2022/11/13 03:43:53;;;;;;;1.77;1.67;;;;;;;;;;5098117;28;20093;-88
2022/11/13 03:46:19;;;;;;;1.92;1.83;;;;;;;;;;5093114;28;20040;-88
2022/11/13 03:48:46;;;;;;;1.05;1.05;;;;;;;;;;5075426;28;20421;-87
2022/11/13 03:51:14;;;;;;;1.02;1.02;;;;;;;;;;5074834;28;20421;-87
2022/11/13 03:53:41;;;;;;;1.90;0.82;;;;;;;;;;5075036;28;20048;-87
2022/11/13 03:56:07;;;;;;;1.00;1.00;;;;;;;;;;5075090;28;20139;-87
2022/11/13 03:58:34;;;;;;;1.00;1.00;;;;;;;;;;5075672;28;20101;-88
2022/11/13 04:01:00;;;;;;;1.70;1.65;;;;;;;;;;5075128;28;20049;-88
2022/11/13 04:03:27;;;;;;;1.92;1.83;;;;;;;;;;5075458;28;20048;-88
2022/11/13 04:05:53;;;;;;;0.90;0.90;;;;;;;;;;5075869;28;20452;-89
2022/11/13 04:08:21;;;;;;;1.50;1.10;;;;;;;;;;5075102;28;20414;-89
2022/11/13 04:10:48;;;;;;;2.28;1.45;;;;;;;;;;5075356;28;20097;-89
2022/11/13 04:13:14;;;;;;;1.50;1.42;;;;;;;;;;5075691;28;20051;-89
2022/11/13 04:15:41;;;;;;;0.45;0.45;;;;;;;;;;5074898;28;20052;-88
2022/11/13 04:18:08;;;;;;;1.27;1.23;;;;;;;;;;5075146;28;20391;-88
2022/11/13 04:20:34;;;;;;;2.50;2.40;;;;;;;;;;5074245;28;20391;-89
2022/11/13 04:23:03;;;;;;;1.48;1.42;;;;;;;;;;5075091;28;20048;-90
2022/11/13 04:25:31;;;;;;;1.08;1.08;;;;;;;;;;5074828;28;20048;-87
2022/11/13 04:27:57;;;;;;;0.60;0.60;;;;;;;;;;5074724;28;20044;-88
2022/11/13 04:30:24;;;;;;;1.50;1.45;;;;;;;;;;5074693;28;20048;-87
2022/11/13 04:32:50;;;;;;;2.17;1.75;;;;;;;;;;5074926;28;20048;-87
2022/11/13 04:35:17;;;;;;;1.33;1.33;;;;;;;;;;5074738;28;20052;-87
2022/11/13 04:37:44;;;;;;;0.43;0.43;;;;;;;;;;5077345;28;20113;-87
2022/11/13 04:40:11;;;;;;;0.98;0.95;;;;;;;;;;5095405;28;20048;-87
2022/11/13 04:42:50;;;;;;;2.15;1.75;;;;;;;;;;5095084;28;20135;-87
2022/11/13 04:45:17;;;;;;;0.90;0.90;;;;;;;;;;5074190;28;20045;-86
2022/11/13 04:47:44;;;;;;;1.20;1.10;;;;;;;;;;5074227;28;20102;-87
2022/11/13 04:50:10;;;;;;;1.00;0.98;;;;;;;;;;5074230;28;20056;-87
2022/11/13 04:52:37;;;;;;;0.40;0.40;;;;;;;;;;5074234;28;20059;-87
2022/11/13 04:55:04;;;;;;;1.23;1.23;;;;;;;;;;5086581;28;20052;-87
2022/11/13 04:57:31;;;;;;;0.98;0.98;;;;;;;;;;5094501;28;20459;-87
2022/11/13 04:59:59;;;;;;;2.05;1.95;;;;;;;;;;5094287;28;20048;-88
2022/11/13 05:02:25;;;;;;;1.33;1.23;;;;;;;;;;5094415;28;20054;-88
2022/11/13 05:04:52;;;;;;;0.60;0.60;;;;;;;;;;5094040;28;20044;-87
2022/11/13 05:07:18;;;;;;;0.85;0.85;;;;;;;;;;5094491;28;20047;-87
2022/11/13 05:09:45;;;;;;;2.45;2.25;;;;;;;;;;5094021;28;20048;-87
2022/11/13 05:12:11;;;;;;;0.45;0.45;;;;;;;;;;5094072;28;20048;-89
2022/11/13 05:14:39;;;;;;;1.42;1.38;;;;;;;;;;5094517;28;20077;-89
2022/11/13 05:17:08;;;;;;;2.20;2.03;;;;;;;;;;5094424;28;20055;-89
2022/11/13 05:19:35;;;;;;;1.98;1.88;;;;;;;;;;5094330;28;20493;-90
2022/11/13 05:22:02;;;;;;;1.73;1.63;;;;;;;;;;5094426;28;20385;-89
2022/11/13 05:24:28;;;;;;;1.33;1.23;;;;;;;;;;5094520;28;20097;-88
2022/11/13 05:26:55;;;;;;;6.18;1.88;;;;;;;;;;5093933;28;20093;-88
2022/11/13 05:29:21;;;;;;;2.13;1.92;;;;;;;;;;5093833;28;20347;-88
2022/11/13 05:31:48;;;;;;;2.95;2.75;;;;;;;;;;5095342;28;20058;-88
2022/11/13 05:34:16;;;;;;;1.67;0.98;;;;;;;;;;5094725;28;20043;-89
2022/11/13 05:36:43;;;;;;;1.05;1.05;;;;;;;;;;5093802;28;20060;-89
2022/11/13 05:39:09;;;;;;;1.50;1.40;;;;;;;;;;5093954;28;20047;-88
2022/11/13 05:41:36;;;;;;;3.35;3.15;;;;;;;;;;5095002;28;20055;-89
2022/11/13 05:44:02;;;;;;;1.63;1.52;;;;;;;;;;5093986;28;20044;-89
2022/11/13 05:46:29;;;;;;;1.35;1.25;;;;;;;;;;5093736;28;20105;-89
2022/11/13 05:48:57;;;;;;;4.18;1.77;;;;;;;;;;5093715;28;20101;-88
2022/11/13 05:51:25;;;;;;;2.10;2.00;;;;;;;;;;5093643;28;20052;-88
2022/11/13 05:53:52;;;;;;;1.08;0.88;;;;;;;;;;5093111;28;20048;-87
2022/11/13 05:56:21;;;;;;;1.00;1.00;;;;;;;;;;5094268;28;20101;-87
2022/11/13 05:58:49;;;;;;;1.20;1.08;;;;;;;;;;5093099;28;20052;-88
2022/11/13 06:01:17;;;;;;;2.85;1.70;;;;;;;;;;5092744;28;20055;-87
2022/11/13 06:03:43;;;;;;;1.25;1.15;;;;;;;;;;5093170;28;20120;-88
2022/11/13 06:06:11;;;;;;;1.02;1.02;;;;;;;;;;5093279;28;20044;-87
2022/11/13 06:08:39;;;;;;;1.80;1.70;;;;;;;;;;5092891;28;20451;-87
2022/11/13 06:11:07;;;;;;;1.65;1.58;;;;;;;;;;5093134;28;20441;-88
2022/11/13 06:13:34;;;;;;;3.53;3.22;;;;;;;;;;5093249;28;20052;-88
2022/11/13 06:16:01;;;;;;;1.60;1.50;;;;;;;;;;5092879;28;20048;-88
2022/11/13 06:18:28;;;;;;;4.78;1.75;;;;;;;;;;5093243;28;20079;-87
2022/11/13 06:20:55;;;;;;;2.15;1.88;;;;;;;;;;5092860;28;20048;-88
2022/11/13 06:23:21;;;;;;;1.65;1.55;;;;;;;;;;5093180;28;20101;-87
2022/11/13 06:25:49;;;;;;;2.78;1.85;;;;;;;;;;5094973;28;20040;-88
2022/11/13 06:28:15;;;;;;;1.13;0.80;;;;;;;;;;5094102;28;20097;-88
2022/11/13 06:30:42;;;;;;;0.93;0.90;;;;;;;;;;5092987;28;20055;-87
2022/11/13 06:33:09;;;;;;;1.73;1.50;;;;;;;;;;5092610;28;20052;-87
2022/11/13 06:35:35;;;;;;;3.03;2.90;;;;;;;;;;5092935;28;20048;-87
2022/11/13 06:38:02;;;;;;;1.95;1.65;;;;;;;;;;5081998;28;20052;-88
2022/11/13 06:40:28;;;;;;;1.48;1.38;;;;;;;;;;5092218;28;20044;-87
2022/11/13 06:42:56;;;;;;;1.08;0.93;;;;;;;;;;5093887;28;20056;-87
2022/11/13 06:45:23;;;;;;;1.77;1.67;;;;;;;;;;5096412;28;20040;-87
2022/11/13 06:47:49;;;;;;;1.98;1.88;;;;;;;;;;5095452;28;20113;-89
2022/11/13 06:50:16;;;;;;;2.58;1.67;;;;;;;;;;5091342;28;20056;-88
2022/11/13 06:52:42;;;;;;;2.60;2.50;;;;;;;;;;5096375;28;20048;-88
2022/11/13 06:55:09;;;;;;;2.55;2.40;;;;;;;;;;5096645;28;20044;-88
2022/11/13 06:57:35;;;;;;;2.47;2.38;;;;;;;;;;5096440;28;20048;-88
2022/11/13 07:00:04;;;;;;;2.22;2.03;;;;;;;;;;5096187;28;20052;-88
2022/11/13 07:02:31;;;;;;;1.08;0.95;;;;;;;;;;5095990;28;20048;-88
2022/11/13 07:04:57;;;;;;;2.83;2.67;;;;;;;;;;5095781;28;20451;-87
2022/11/13 07:07:24;;;;;;;3.03;2.85;;;;;;;;;;5095930;28;20055;-87
2022/11/13 07:09:50;;;;;;;2.75;2.50;;;;;;;;;;5096107;28;20043;-88
2022/11/13 07:12:17;;;;;;;2.05;1.83;;;;;;;;;;5101999;28;20141;-88
2022/11/13 07:14:44;;;;;;;1.95;1.85;;;;;;;;;;5095957;28;20052;-89
2022/11/13 07:17:12;;;;;;;2.00;1.90;;;;;;;;;;5095750;28;20044;-88
2022/11/13 07:19:38;;;;;;;1.50;1.42;;;;;;;;;;5095924;28;20055;-88
2022/11/13 07:22:05;;;;;;;3.03;2.72;;;;;;;;;;5098073;28;20047;-87
2022/11/13 07:24:31;;;;;;;2.03;1.88;;;;;;;;;;5095896;28;20048;-88
2022/11/13 07:26:58;;;;;;;3.53;2.10;;;;;;;;;;5096138;28;20044;-88
2022/11/13 07:29:24;;;;;;;1.88;1.67;;;;;;;;;;5095966;28;20055;-89
2022/11/13 07:31:52;;;;;;;2.33;2.22;;;;;;;;;;5096054;28;20048;-89
2022/11/13 07:34:20;;;;;;;4.35;4.15;;;;;;;;;;5096077;28;20469;-88
2022/11/13 07:36:46;;;;;;;1.98;1.80;;;;;;;;;;5095527;28;20086;-88
2022/11/13 07:39:13;;;;;;;2.35;2.15;;;;;;;;;;5096813;28;20071;-87
2022/11/13 07:41:39;;;;;;;6.38;1.80;;;;;;;;;;5097891;28;20044;-88
2022/11/13 07:44:06;;;;;;;2.58;2.45;;;;;;;;;;5101347;28;20184;-94
2022/11/13 07:46:34;;;;;;;1.65;1.55;;;;;;;;;;5099075;28;20052;-93
2022/11/13 07:49:00;;;;;;;2.15;2.05;;;;;;;;;;5102198;28;20101;-95
2022/11/13 07:51:28;;;;;;;1.95;1.85;;;;;;;;;;5099326;28;20044;-93
2022/11/13 07:53:55;;;;;;;0.90;0.90;;;;;;;;;;5096394;28;20097;-93
2022/11/13 07:56:24;;;;;;;2.17;1.67;;;;;;;;;;5096460;28;20109;-90
2022/11/13 07:58:50;;;;;;;2.28;2.03;;;;;;;;;;5096382;28;20112;-90
2022/11/13 08:01:17;;;;;;;1.75;1.65;;;;;;;;;;5096739;28;20052;-91
2022/11/13 08:03:44;;;;;;;1.50;1.40;;;;;;;;;;5096959;28;20052;-89
2022/11/13 08:06:10;;;;;;;2.35;1.73;;;;;;;;;;5096348;28;20040;-92
2022/11/13 08:08:38;;;;;;;3.53;3.35;;;;;;;;;;5096005;28;20044;-92
2022/11/13 08:11:05;;;;;;;3.85;3.63;;;;;;;;;;5096015;28;20048;-92
2022/11/13 08:13:33;;;;;;;6.65;3.60;;;;;;;;;;5097972;28;20055;-92
2022/11/13 08:16:00;;;;;;;4.70;3.13;;;;;;;;;;5099243;28;20523;-92
2022/11/13 08:18:27;;;;;;;3.17;2.97;;;;;;;;;;5096593;28;20080;-90
2022/11/13 08:20:53;;;;;;;4.97;3.40;;;;;;;;;;5095722;28;20054;-91
2022/11/13 08:23:20;;;;;;;3.00;2.80;;;;;;;;;;5095613;28;20090;-91
2022/11/13 08:25:48;;;;;;;4.10;3.80;;;;;;;;;;5095586;28;20048;-91
2022/11/13 08:28:15;;;;;;;2.97;2.78;;;;;;;;;;5095160;28;20044;-88
2022/11/13 08:30:43;;;;;;;3.72;3.08;;;;;;;;;;5095514;28;20052;-91
2022/11/13 08:33:10;;;;;;;2.92;2.72;;;;;;;;;;5095278;28;20485;-91
2022/11/13 08:35:36;;;;;;;3.72;3.42;;;;;;;;;;5095917;28;20047;-91
2022/11/13 08:38:03;;;;;;;4.13;3.83;;;;;;;;;;5095619;28;20043;-92
2022/11/13 08:40:30;;;;;;;4.60;3.65;;;;;;;;;;5096235;28;20494;-91
2022/11/13 08:43:00;;;;;;;2.75;2.55;;;;;;;;;;5097418;28;20085;-91
2022/11/13 08:45:26;;;;;;;2.28;2.13;;;;;;;;;;5096785;28;20051;-92
2022/11/13 08:47:53;;;;;;;3.08;2.88;;;;;;;;;;5097693;28;20044;-91
2022/11/13 08:50:20;;;;;;;2.78;2.58;;;;;;;;;;5096078;28;20063;-91
2022/11/13 08:52:46;;;;;;;2.28;2.15;;;;;;;;;;5095167;28;20048;-91
2022/11/13 08:55:13;;;;;;;3.20;2.95;;;;;;;;;;5096498;28;20044;-92
2022/11/13 08:57:40;;;;;;;2.50;2.28;;;;;;;;;;5094855;28;20485;-90
2022/11/13 09:00:09;;;;;;;1.45;1.35;;;;;;;;;;5095678;28;20135;-91
2022/11/13 09:02:35;;;;;;;4.20;3.90;;;;;;;;;;5095040;28;20052;-92
2022/11/13 09:05:02;;;;;;;3.17;2.95;;;;;;;;;;5095278;28;20553;-91
2022/11/13 09:07:28;;;;;;;5.15;4.85;;;;;;;;;;5094891;28;20446;-90
2022/11/13 09:09:55;;;;;;;4.78;2.88;;;;;;;;;;5098544;28;20082;-90
2022/11/13 09:12:21;;;;;;;3.80;3.25;;;;;;;;;;5094632;28;20056;-90
2022/11/13 09:14:53;;;;;;;2.63;2.53;;;;;;;;;;5093834;28;20094;-89
2022/11/13 09:17:21;;;;;;;3.67;3.42;;;;;;;;;;5095040;28;20048;-90
2022/11/13 09:19:48;;;;;;;11.38;6.32;;;;;;;;;;5074094;28;20056;-91
2022/11/13 09:22:14;;;;;;;3.10;2.88;;;;;;;;;;5074465;28;20060;-90
2022/11/13 09:24:41;;;;;;;4.25;3.85;;;;;;;;;;5074272;28;20051;-91
2022/11/13 09:27:07;;;;;;;5.93;3.67;;;;;;;;;;5074208;28;20114;-90
2022/11/13 09:29:34;;;;;;;3.50;3.20;;;;;;;;;;5073917;28;20490;-90
2022/11/13 09:32:01;;;;;;;7.25;6.75;;;;;;;;;;5073918;28;20048;-90
2022/11/13 09:34:29;;;;;;;5.30;4.60;;;;;;;;;;5074032;28;20504;-91
2022/11/13 09:36:55;;;;;;;5.80;4.80;;;;;;;;;;5073739;28;20098;-91
2022/11/13 09:39:22;;;;;;;4.93;4.53;;;;;;;;;;5074310;28;20048;-92
2022/11/13 09:41:51;;;;;;;10.35;5.20;;;;;;;;;;5074730;28;20048;-92
2022/11/13 09:44:20;;;;;;;6.45;5.85;;;;;;;;;;5074291;28;20055;-89
2022/11/13 09:46:48;;;;;;;4.68;3.95;;;;;;;;;;5073557;28;20478;-89
2022/11/13 09:49:16;;;;;;;13.77;9.20;;;;;;;;;;5073324;28;20435;-89
2022/11/13 09:51:45;;;;;;;6.90;4.30;;;;;;;;;;5074688;28;20115;-89
2022/11/13 09:54:13;;;;;;;5.15;3.85;;;;;;;;;;5073709;28;20056;-90
2022/11/13 09:56:43;;;;;;;11.57;10.85;;;;;;;;;;5073686;28;20056;-90
2022/11/13 09:59:15;;;;;;;8.43;6.18;;;;;;;;;;5073391;28;20102;-90
2022/11/13 10:01:47;;;;;;;5.15;4.75;;;;;;;;;;5073353;28;20052;-89
2022/11/13 10:04:15;;;;;;;8.20;5.13;;;;;;;;;;5076142;28;20056;-89
2022/11/13 10:06:50;;;;;;;6.80;6.10;;;;;;;;;;5073335;28;20075;-90
2022/11/13 10:09:21;;;;;;;5.15;4.85;;;;;;;;;;5074013;28;20131;-91
2022/11/13 10:11:50;;;;;;;9.00;7.35;;;;;;;;;;5074018;28;20048;-89
2022/11/13 10:14:19;;;;;;;9.35;6.82;;;;;;;;;;5074159;28;20053;-89
2022/11/13 10:16:48;;;;;;;3.83;3.63;;;;;;;;;;5074104;28;20059;-89
2022/11/13 10:22:05;;;;;;;7.03;6.35;;;;;;;;;;5073035;28;20047;-90
2022/11/13 10:24:36;;;;;;;6.13;5.63;;;;;;;;;;5073252;28;20049;-90
2022/11/13 10:27:07;;;;;;;5.75;4.85;;;;;;;;;;5074323;28;20049;-88
2022/11/13 10:29:34;;;;;;;6.13;5.78;;;;;;;;;;5073125;28;20437;-88
2022/11/13 10:32:14;;;;;;;9.98;5.07;;;;;;;;;;5072835;28;20532;-90
2022/11/13 10:34:42;;;;;;;7.43;6.82;;;;;;;;;;5073085;28;20048;-89
2022/11/13 10:37:27;;;;;;;5.85;4.60;;;;;;;;;;5073189;28;20051;-89
2022/11/13 10:39:55;;;;;;;7.00;6.40;;;;;;;;;;5073411;28;20123;-89
2022/11/13 10:42:22;;;;;;;5.55;5.25;;;;;;;;;;5073025;28;20390;-89
2022/11/13 10:44:53;;;;;;;10.25;9.57;;;;;;;;;;5072983;28;20512;-89
2022/11/13 10:47:21;;;;;;;11.27;10.45;;;;;;;;;;5072919;28;20044;-89
2022/11/13 10:49:47;;;;;;;13.02;12.32;;;;;;;;;;5073645;28;20052;-89
2022/11/13 10:52:17;;;;;;;4.43;4.13;;;;;;;;;;5074240;28;20052;-90
2022/11/13 10:54:43;;;;;;;6.43;5.57;;;;;;;;;;5073879;28;20452;-90
2022/11/13 10:57:23;;;;;;;5.88;5.38;;;;;;;;;;5075281;28;20298;-90
2022/11/13 10:59:50;;;;;;;13.65;12.80;;;;;;;;;;5072813;28;20131;-89
2022/11/13 11:02:17;;;;;;;15.13;14.00;;;;;;;;;;5073055;28;20053;-90
2022/11/13 11:04:44;;;;;;;15.85;14.45;;;;;;;;;;5072307;28;20056;-88
2022/11/13 11:07:13;;;;;;;11.43;10.70;;;;;;;;;;5072634;28;20067;-89
2022/11/13 11:09:42;;;;;;;6.43;5.85;;;;;;;;;;5072129;28;20056;-92
2022/11/13 11:12:15;;;;;;;10.40;9.70;;;;;;;;;;5072761;28;20098;-89
2022/11/13 11:14:45;;;;;;;7.10;6.50;;;;;;;;;;5072009;28;20422;-88
2022/11/13 11:17:13;;;;;;;10.43;9.55;;;;;;;;;;5072415;28;20113;-89
2022/11/13 11:19:40;;;;;;;9.75;8.95;;;;;;;;;;5072299;28;20052;-90
2022/11/13 11:22:09;;;;;;;13.50;12.63;;;;;;;;;;5089447;28;20059;-89
2022/11/13 11:24:37;;;;;;;13.00;12.25;;;;;;;;;;5092664;28;20085;-89
2022/11/13 11:27:06;;;;;;;6.18;5.60;;;;;;;;;;5092551;28;20044;-91
2022/11/13 11:29:34;;;;;;;12.23;11.40;;;;;;;;;;5095413;28;20059;-91
2022/11/13 11:32:06;;;;;;;14.55;13.70;;;;;;;;;;5096512;28;20067;-91
2022/11/13 11:34:35;;;;;;;7.32;6.63;;;;;;;;;;5097230;28;20547;-92
2022/11/13 11:37:05;;;;;;;8.32;7.82;;;;;;;;;;5097004;28;20051;-91
2022/11/13 11:39:35;;;;;;;7.70;5.85;;;;;;;;;;5096915;28;20055;-91
2022/11/13 11:42:09;;;;;;;5.90;5.50;;;;;;;;;;5097286;28;20055;-91
2022/11/13 11:44:39;;;;;;;11.55;10.63;;;;;;;;;;5097031;28;20059;-91
2022/11/13 11:47:11;;;;;;;8.35;7.63;;;;;;;;;;5096858;28;20409;-91
2022/11/13 11:49:37;;;;;;;14.27;13.43;;;;;;;;;;5097499;28;20121;-92
2022/11/13 11:52:10;;;;;;;13.00;12.10;;;;;;;;;;5100783;28;20052;-92
2022/11/13 11:54:40;;;;;;;11.43;10.60;;;;;;;;;;5098389;28;20059;-91
2022/11/13 11:57:14;;;;;;;14.90;13.93;;;;;;;;;;5097344;28;20044;-91
2022/11/13 11:59:51;;;;;;;10.27;7.13;;;;;;;;;;5096195;28;20052;-91
2022/11/13 12:02:31;;;;;;;14.13;13.23;;;;;;;;;;5097903;28;20041;-93
2022/11/13 12:05:03;;;;;;;12.27;11.60;;;;;;;;;;5116625;28;20113;-92
2022/11/13 12:07:35;;;;;;;12.45;11.65;;;;;;;;;;5101410;28;20075;-91
2022/11/13 12:10:06;;;;;;;12.65;11.75;;;;;;;;;;5096135;28;20052;-91
2022/11/13 12:12:42;;;;;;;10.77;9.98;;;;;;;;;;5096244;28;20059;-91
2022/11/13 12:15:10;;;;;;;10.43;9.73;;;;;;;;;;5096002;28;20048;-93
2022/11/13 12:17:47;;;;;;;11.95;11.35;;;;;;;;;;5100106;28;20505;-93
2022/11/13 12:20:19;;;;;;;11.65;11.05;;;;;;;;;;5097411;28;20051;-92
2022/11/13 12:22:50;;;;;;;7.30;6.80;;;;;;;;;;5098021;28;20409;-93
2022/11/13 12:25:19;;;;;;;15.35;14.63;;;;;;;;;;5097573;28;20048;-91
2022/11/13 12:27:50;;;;;;;15.52;14.82;;;;;;;;;;5097092;28;20055;-91
2022/11/13 12:30:19;;;;;;;17.23;16.15;;;;;;;;;;5096558;28;20060;-91
2022/11/13 12:33:16;;;;;;;14.02;13.15;;;;;;;;;;5096823;28;20066;-92
2022/11/13 12:35:45;;;;;;;14.52;13.73;;;;;;;;;;5034033;28;20565;-92
2022/11/13 12:38:18;;;;;;;16.08;15.20;;;;;;;;;;5034209;28;20049;-93
2022/11/13 12:40:48;;;;;;;12.95;12.15;;;;;;;;;;5033194;28;20091;-91
2022/11/13 12:43:29;;;;;;;10.23;9.73;;;;;;;;;;5032765;28;20041;-91
2022/11/13 12:45:58;;;;;;;11.02;10.32;;;;;;;;;;5035647;28;20056;-90
2022/11/13 12:48:28;;;;;;;13.25;12.55;;;;;;;;;;5034102;28;20064;-90
2022/11/13 12:51:00;;;;;;;12.63;11.88;;;;;;;;;;5033406;28;20109;-90
2022/11/13 12:53:27;;;;;;;12.93;12.23;;;;;;;;;;5032725;28;20168;-90
2022/11/13 12:55:58;;;;;;;10.55;9.85;;;;;;;;;;5032594;28;20128;-91
2022/11/13 12:58:26;;;;;;;9.50;8.85;;;;;;;;;;5032504;28;20124;-92
2022/11/13 13:00:54;;;;;;;10.88;10.25;;;;;;;;;;5031828;28;20053;-90
2022/11/13 13:03:27;;;;;;;9.65;9.05;;;;;;;;;;5032598;28;20054;-91
2022/11/13 13:06:04;;;;;;;11.13;10.27;;;;;;;;;;5032818;28;20054;-91
2022/11/13 13:08:38;;;;;;;12.25;11.60;;;;;;;;;;5032784;28;20103;-91
2022/11/13 13:11:12;;;;;;;11.65;10.80;;;;;;;;;;5094670;28;20067;-92
2022/11/13 13:13:43;;;;;;;15.30;14.45;;;;;;;;;;5096003;28;20055;-92
2022/11/13 13:16:10;;;;;;;12.52;11.30;;;;;;;;;;5094223;28;20048;-92
2022/11/13 13:18:38;;;;;;;6.28;5.68;;;;;;;;;;5094512;28;20409;-92
2022/11/13 13:21:08;;;;;;;5.88;5.38;;;;;;;;;;5094513;28;20052;-91
2022/11/13 13:23:36;;;;;;;9.90;9.23;;;;;;;;;;5079897;28;20059;-90
2022/11/13 13:26:03;;;;;;;10.02;9.23;;;;;;;;;;5093833;28;20055;-91
2022/11/13 13:28:31;;;;;;;9.70;9.10;;;;;;;;;;5093764;28;20058;-90
2022/11/13 13:31:01;;;;;;;10.27;9.63;;;;;;;;;;5093128;28;20501;-91
2022/11/13 13:33:32;;;;;;;9.05;8.45;;;;;;;;;;5094352;28;20052;-91
2022/11/13 13:36:06;;;;;;;10.13;9.50;;;;;;;;;;5094307;28;20073;-92
2022/11/13 13:38:37;;;;;;;10.38;9.68;;;;;;;;;;5093907;28;20048;-90
2022/11/13 13:41:12;;;;;;;9.27;8.77;;;;;;;;;;5095606;28;20098;-91
2022/11/13 13:43:46;;;;;;;9.15;8.60;;;;;;;;;;5094155;28;20076;-91
2022/11/13 13:46:14;;;;;;;10.13;9.43;;;;;;;;;;5093256;28;20047;-91
2022/11/13 13:48:41;;;;;;;13.60;12.90;;;;;;;;;;5093250;28;20055;-91
2022/11/13 13:51:14;;;;;;;5.47;5.07;;;;;;;;;;5093384;28;20457;-90
2022/11/13 13:53:42;;;;;;;9.75;9.15;;;;;;;;;;5097475;28;20044;-91
2022/11/13 13:56:10;;;;;;;11.10;10.25;;;;;;;;;;5097442;28;20044;-92
2022/11/13 13:58:37;;;;;;;13.05;12.23;;;;;;;;;;5096191;28;20552;-91
2022/11/13 14:01:05;;;;;;;7.72;7.18;;;;;;;;;;5093658;28;20413;-91
2022/11/13 14:03:31;;;;;;;10.85;9.93;;;;;;;;;;5094138;28;20044;-90
2022/11/13 14:06:07;;;;;;;11.38;10.50;;;;;;;;;;5095945;28;20481;-91
2022/11/13 14:08:34;;;;;;;9.98;9.20;;;;;;;;;;5095612;28;20040;-91
2022/11/13 14:11:15;;;;;;;9.25;8.35;;;;;;;;;;5095709;28;20386;-90
2022/11/13 14:13:42;;;;;;;11.35;10.70;;;;;;;;;;5085724;28;20078;-90
2022/11/13 14:16:09;;;;;;;12.98;12.07;;;;;;;;;;5075773;28;20052;-90
2022/11/13 14:18:35;;;;;;;11.95;11.35;;;;;;;;;;5078072;28;20044;-90
2022/11/13 14:21:04;;;;;;;11.15;10.55;;;;;;;;;;5077198;28;20040;-91
2022/11/13 14:23:32;;;;;;;10.85;10.20;;;;;;;;;;5089450;28;20044;-89
2022/11/13 14:25:59;;;;;;;11.82;11.00;;;;;;;;;;5092893;28;20204;-89
2022/11/13 14:28:28;;;;;;;9.35;6.55;;;;;;;;;;5092531;28;20040;-90
2022/11/13 14:30:56;;;;;;;11.48;10.77;;;;;;;;;;5074754;28;20045;-89
2022/11/13 14:33:23;;;;;;;11.10;10.45;;;;;;;;;;5072490;28;20044;-91
2022/11/13 14:35:54;;;;;;;12.40;11.73;;;;;;;;;;5073892;28;20083;-89
2022/11/13 14:38:21;;;;;;;4.75;4.38;;;;;;;;;;5073082;28;20052;-88
2022/11/13 14:40:48;;;;;;;16.50;12.20;;;;;;;;;;5072213;28;20513;-89
2022/11/13 14:43:18;;;;;;;4.90;4.45;;;;;;;;;;5085307;28;20185;-88
2022/11/13 14:45:53;;;;;;;5.78;5.30;;;;;;;;;;5092391;28;20052;-89